Jennie K — WDE9719 — position and weather

sailwx.info

Track history (hours):
 
Tides and Currents Weather Stations Pressure Air Temp Water Temp Dewpoint Dewpoint Depression Visibility Wind Speed Wind Dir Waves Ship Positions

Jennie K

Owner: SCF Waxler Marine LLC, St Rose, LA. More information available from US FCC via Universal Licensing System and Coast Guard Vessel Documentation Center.

Last reported at 2018-Jun-20 08:52 UTC. Time now 2018-Jun-21 12:23 UTC.
Position N 32°56' W 091°04'.

Length 43 m; draft 3.1 m.

Type: Ship (hazmat cat B). MMSI: 367420450.

Date/timePositionNaut miles runAvg speedWind from/ knotsBaromVisibWave heightAir tempDewpointWater temp
2018-Jun-20 08:52N 32°56' W 091°04'2 3.8
2018-Jun-20 08:25N 32°54' W 091°04'2 3.8
2018-Jun-20 07:51N 32°52' W 091°06'1 3.9
2018-Jun-20 07:30N 32°52' W 091°07'2 3.7
2018-Jun-20 06:55N 32°50' W 091°08'1 3.6
2018-Jun-20 06:30N 32°49' W 091°09'2 3.3
2018-Jun-20 06:00N 32°47' W 091°10'2 3.3
2018-Jun-20 05:30N 32°45' W 091°09'2 3.1
2018-Jun-20 04:57N 32°44' W 091°08'2 3.9
2018-Jun-20 04:30N 32°44' W 091°06'2 4.4
2018-Jun-20 04:00N 32°44' W 091°03'4 3.6
2018-Jun-20 02:56N 32°41' W 091°06'0 0.1
2018-Jun-20 02:24N 32°41' W 091°06'0 0.4
2018-Jun-20 01:55N 32°41' W 091°06'1 3.6
2018-Jun-20 01:30N 32°40' W 091°08'1 2.7
2018-Jun-20 01:00N 32°39' W 091°09'1 3.0
2018-Jun-20 00:30N 32°37' W 091°09'0 1.0
2018-Jun-20 00:00N 32°37' W 091°09'2 3.9
2018-Jun-19 23:30N 32°35' W 091°08'2 4.0
2018-Jun-19 23:00N 32°34' W 091°06'2 3.7
2018-Jun-19 22:30N 32°32' W 091°06'2 4.5
2018-Jun-19 22:00N 32°30' W 091°07'2 4.3
2018-Jun-19 21:30N 32°28' W 091°06'2 4.3
2018-Jun-19 21:00N 32°27' W 091°04'2 4.3
2018-Jun-19 20:30N 32°26' W 091°01'2 3.8
2018-Jun-19 20:00N 32°25' W 090°60'2 3.9
2018-Jun-19 19:30N 32°23' W 091°00'2 3.6
2018-Jun-19 19:00N 32°21' W 090°59'2 4.2
2018-Jun-19 18:30N 32°21' W 090°57'2 4.0
2018-Jun-19 18:00N 32°20' W 090°55'2 3.3
2018-Jun-19 17:30N 32°19' W 090°55'2 4.5
2018-Jun-19 17:00N 32°17' W 090°57'2 3.8
2018-Jun-19 16:30N 32°16' W 090°58'2 3.8
2018-Jun-19 16:00N 32°14' W 090°59'2 4.4
2018-Jun-19 15:30N 32°12' W 090°59'2 3.6
2018-Jun-19 15:00N 32°10' W 090°60'2 4.0
2018-Jun-19 14:30N 32°08' W 091°00'2 3.7
2018-Jun-19 14:00N 32°07' W 091°02'2 3.2
2018-Jun-19 13:30N 32°08' W 091°04'1 1.9
2018-Jun-19 12:59N 32°08' W 091°05'2 3.5
2018-Jun-19 12:30N 32°07' W 091°06'2 4.3
2018-Jun-19 11:56N 32°05' W 091°04'2 3.9
2018-Jun-19 11:30N 32°04' W 091°03'2 4.7
2018-Jun-19 11:00N 32°01' W 091°04'2 4.7
2018-Jun-19 10:30N 31°60' W 091°06'2 4.0
2018-Jun-19 10:00N 31°59' W 091°08'2 4.2
2018-Jun-19 09:30N 31°58' W 091°11'2 4.0
2018-Jun-19 09:00N 31°57' W 091°11'2 4.7
2018-Jun-19 08:29N 31°54' W 091°12'2 4.2
2018-Jun-19 08:00N 31°53' W 091°14'2 4.2
2018-Jun-19 07:29N 31°52' W 091°16'2 3.9
2018-Jun-19 07:00N 31°51' W 091°18'2 3.9
2018-Jun-19 06:30N 31°51' W 091°20'2 3.5
2018-Jun-19 05:57N 31°49' W 091°21'3 4.1
2018-Jun-19 05:07N 31°46' W 091°22'0 3.7
2018-Jun-19 04:59N 31°45' W 091°22'2 4.4
2018-Jun-19 04:30N 31°44' W 091°23'2 4.2
2018-Jun-19 04:00N 31°42' W 091°24'8 4.4
2018-Jun-19 02:08N 31°33' W 091°25'  
2018-Jun-15 21:45N 30°02' W 090°42'  
2018-Jun-13 07:27N 30°13' W 091°05'6 2.7
2018-Jun-13 05:17N 30°17' W 091°10'4 2.1
2018-Jun-13 03:16N 30°21' W 091°12'78 3.2
2018-Jun-12 03:07N 31°38' W 091°24'4 8.0
2018-Jun-12 02:40N 31°41' W 091°24'1 7.1
2018-Jun-12 02:30N 31°42' W 091°24'4 7.5
2018-Jun-12 01:58N 31°46' W 091°22'4 7.7
2018-Jun-12 01:30N 31°49' W 091°21'3 6.3
2018-Jun-12 00:58N 31°51' W 091°18'6 7.3
2018-Jun-12 00:12N 31°54' W 091°12'2 7.3
2018-Jun-11 23:54N 31°56' W 091°12'3 7.3
2018-Jun-11 23:30N 31°59' W 091°10'4 7.4
2018-Jun-11 22:59N 31°59' W 091°06'4 7.6
2018-Jun-11 22:30N 32°03' W 091°04'4 7.2
2018-Jun-11 22:00N 32°06' W 091°06'2 4.4
2018-Jun-11 21:30N 32°08' W 091°06'3 6.6
2018-Jun-11 21:00N 32°07' W 091°02'3 6.8
2018-Jun-11 20:30N 32°10' W 091°00'4 7.8
2018-Jun-11 20:00N 32°14' W 090°59'4 7.5
2018-Jun-11 19:30N 32°17' W 090°57'4 7.5
2018-Jun-11 19:00N 32°20' W 090°54'4 7.4
2018-Jun-11 18:30N 32°21' W 090°58'3 6.0
2018-Jun-11 18:00N 32°24' W 090°59'3 6.1
2018-Jun-11 17:30N 32°26' W 091°02'3 6.2
2018-Jun-11 17:00N 32°27' W 091°05'4 6.9
2018-Jun-11 16:30N 32°31' W 091°07'4 7.2
2018-Jun-11 16:00N 32°34' W 091°07'3 6.4
2018-Jun-11 15:30N 32°37' W 091°09'3 6.6
2018-Jun-11 15:00N 32°40' W 091°08'5 3.3
2018-Jun-11 13:30N 32°45' W 091°09'  
Track history (hours):
 
Tides and Currents Weather Stations Pressure Air Temp Water Temp Dewpoint Dewpoint Depression Visibility Wind Speed Wind Dir Waves Ship Positions

Jennie K

Owner: SCF Waxler Marine LLC, St Rose, LA. More information available from US FCC via Universal Licensing System and Coast Guard Vessel Documentation Center.

Last reported at 2018-Jun-20 08:52 UTC. Time now 2018-Jun-21 12:23 UTC.
Position N 32°56' W 091°04'.

Length 43 m; draft 3.1 m.

Type: Ship (hazmat cat B). MMSI: 367420450.

Date/timePositionNaut miles runAvg speedWind from/ knotsBaromVisibWave heightAir tempDewpointWater temp
2018-Jun-20 08:52N 32°56' W 091°04'2 3.8
2018-Jun-20 08:25N 32°54' W 091°04'2 3.8
2018-Jun-20 07:51N 32°52' W 091°06'1 3.9
2018-Jun-20 07:30N 32°52' W 091°07'2 3.7
2018-Jun-20 06:55N 32°50' W 091°08'1 3.6
2018-Jun-20 06:30N 32°49' W 091°09'2 3.3
2018-Jun-20 06:00N 32°47' W 091°10'2 3.3
2018-Jun-20 05:30N 32°45' W 091°09'2 3.1
2018-Jun-20 04:57N 32°44' W 091°08'2 3.9
2018-Jun-20 04:30N 32°44' W 091°06'2 4.4
2018-Jun-20 04:00N 32°44' W 091°03'4 3.6
2018-Jun-20 02:56N 32°41' W 091°06'0 0.1
2018-Jun-20 02:24N 32°41' W 091°06'0 0.4
2018-Jun-20 01:55N 32°41' W 091°06'1 3.6
2018-Jun-20 01:30N 32°40' W 091°08'1 2.7
2018-Jun-20 01:00N 32°39' W 091°09'1 3.0
2018-Jun-20 00:30N 32°37' W 091°09'0 1.0
2018-Jun-20 00:00N 32°37' W 091°09'2 3.9
2018-Jun-19 23:30N 32°35' W 091°08'2 4.0
2018-Jun-19 23:00N 32°34' W 091°06'2 3.7
2018-Jun-19 22:30N 32°32' W 091°06'2 4.5
2018-Jun-19 22:00N 32°30' W 091°07'2 4.3
2018-Jun-19 21:30N 32°28' W 091°06'2 4.3
2018-Jun-19 21:00N 32°27' W 091°04'2 4.3
2018-Jun-19 20:30N 32°26' W 091°01'2 3.8
2018-Jun-19 20:00N 32°25' W 090°60'2 3.9
2018-Jun-19 19:30N 32°23' W 091°00'2 3.6
2018-Jun-19 19:00N 32°21' W 090°59'2 4.2
2018-Jun-19 18:30N 32°21' W 090°57'2 4.0
2018-Jun-19 18:00N 32°20' W 090°55'2 3.3
2018-Jun-19 17:30N 32°19' W 090°55'2 4.5
2018-Jun-19 17:00N 32°17' W 090°57'2 3.8
2018-Jun-19 16:30N 32°16' W 090°58'2 3.8
2018-Jun-19 16:00N 32°14' W 090°59'2 4.4
2018-Jun-19 15:30N 32°12' W 090°59'2 3.6
2018-Jun-19 15:00N 32°10' W 090°60'2 4.0
2018-Jun-19 14:30N 32°08' W 091°00'2 3.7
2018-Jun-19 14:00N 32°07' W 091°02'2 3.2
2018-Jun-19 13:30N 32°08' W 091°04'1 1.9
2018-Jun-19 12:59N 32°08' W 091°05'2 3.5
2018-Jun-19 12:30N 32°07' W 091°06'2 4.3
2018-Jun-19 11:56N 32°05' W 091°04'2 3.9
2018-Jun-19 11:30N 32°04' W 091°03'2 4.7
2018-Jun-19 11:00N 32°01' W 091°04'2 4.7
2018-Jun-19 10:30N 31°60' W 091°06'2 4.0
2018-Jun-19 10:00N 31°59' W 091°08'2 4.2
2018-Jun-19 09:30N 31°58' W 091°11'2 4.0
2018-Jun-19 09:00N 31°57' W 091°11'2 4.7
2018-Jun-19 08:29N 31°54' W 091°12'2 4.2
2018-Jun-19 08:00N 31°53' W 091°14'2 4.2
2018-Jun-19 07:29N 31°52' W 091°16'2 3.9
2018-Jun-19 07:00N 31°51' W 091°18'2 3.9
2018-Jun-19 06:30N 31°51' W 091°20'2 3.5
2018-Jun-19 05:57N 31°49' W 091°21'3 4.1
2018-Jun-19 05:07N 31°46' W 091°22'0 3.7
2018-Jun-19 04:59N 31°45' W 091°22'2 4.4
2018-Jun-19 04:30N 31°44' W 091°23'2 4.2
2018-Jun-19 04:00N 31°42' W 091°24'8 4.4
2018-Jun-19 02:08N 31°33' W 091°25'  
2018-Jun-15 21:45N 30°02' W 090°42'  
2018-Jun-13 07:27N 30°13' W 091°05'6 2.7
2018-Jun-13 05:17N 30°17' W 091°10'4 2.1
2018-Jun-13 03:16N 30°21' W 091°12'78 3.2
2018-Jun-12 03:07N 31°38' W 091°24'4 8.0
2018-Jun-12 02:40N 31°41' W 091°24'1 7.1
2018-Jun-12 02:30N 31°42' W 091°24'4 7.5
2018-Jun-12 01:58N 31°46' W 091°22'4 7.7
2018-Jun-12 01:30N 31°49' W 091°21'3 6.3
2018-Jun-12 00:58N 31°51' W 091°18'6 7.3
2018-Jun-12 00:12N 31°54' W 091°12'2 7.3
2018-Jun-11 23:54N 31°56' W 091°12'3 7.3
2018-Jun-11 23:30N 31°59' W 091°10'4 7.4
2018-Jun-11 22:59N 31°59' W 091°06'4 7.6
2018-Jun-11 22:30N 32°03' W 091°04'4 7.2
2018-Jun-11 22:00N 32°06' W 091°06'2 4.4
2018-Jun-11 21:30N 32°08' W 091°06'3 6.6
2018-Jun-11 21:00N 32°07' W 091°02'3 6.8
2018-Jun-11 20:30N 32°10' W 091°00'4 7.8
2018-Jun-11 20:00N 32°14' W 090°59'4 7.5
2018-Jun-11 19:30N 32°17' W 090°57'4 7.5
2018-Jun-11 19:00N 32°20' W 090°54'4 7.4
2018-Jun-11 18:30N 32°21' W 090°58'3 6.0
2018-Jun-11 18:00N 32°24' W 090°59'3 6.1
2018-Jun-11 17:30N 32°26' W 091°02'3 6.2
2018-Jun-11 17:00N 32°27' W 091°05'4 6.9
2018-Jun-11 16:30N 32°31' W 091°07'4 7.2
2018-Jun-11 16:00N 32°34' W 091°07'3 6.4
2018-Jun-11 15:30N 32°37' W 091°09'3 6.6
2018-Jun-11 15:00N 32°40' W 091°08'5 3.3
2018-Jun-11 13:30N 32°45' W 091°09'  

Dump ship's entire track history